Terminal Aerodrome Forecast
Issued by NWS

Home | Current Version | Previous Version | Text Only | Print | Product List | Glossary On
Versions: 1 2 3 4 5 6 7 8 9 10 11 12 13 14 15 16 17 18 19 20 21 22 23 24 25
826
FTUS41 KOKX 141435 AAA
TAFGON
TAF AMD
KGON 141435Z 1415/1512 32014G23KT P6SM SKC
     FM141600 32012G18KT P6SM SKC
     FM142100 30008KT P6SM SKC
     FM150200 VRB03KT P6SM SKC=

USA.gov is the U.S. government's official web portal to all federal, state and local government web resources and services.